My Meet Scores
Mickayla Marcus, Patti Dunne's School Of Gymnastics - MyMeetScores.com
Top100 | Top Teams | Upcoming Meets | Completed Meets | Latest | Add Scores | Help| Support | Bookmark and Share

Mickayla Marcus, Patti Dunne's School Of Gymnastics
Personal Bests
LevelVault BarsBeamFloorAA
59.3259.550 9.6009.50037.175
69.3759.525 9.5759.55037.600
79.2509.625 9.5759.50037.750
Meet Scores
Date Meet Team Session Level Division Vault Bars Beam Floor AA
2020-02-21 Team Challenge 2020 Patti Dunne's School Of Gymnastics B1 7 Junior 8.850 7T 9.450 2 9.450 2T 9.500 3T 37.250 3
2020-02-13 Presidential Classic Patti Dunne%27s School Of Gymnastics R11 7 L7 r11 g4 9.250 4T 9.625 2T 9.575 2T 9.300 5 37.750 2
2020-01-24 Manhattan Classic Patti Dunne's School Of Gymnastics 6SL 7 Senior A 9.175 3 8.600 10 9.475 2 9.250 3 36.500 3
2020-01-17 Brestyans Invitational Patti Dunne's School Of Gymnastics C1 7 Age 4 8.900 24T 9.200 14 8.200 38T 9.350 11T 35.650 20
2020-01-10 Little Boston Invitational Patti Dunne's School Of Gymnastics A01 7 JR 9.225 1 9.200 3T 9.175 3 9.050 5 36.650 2
2019-12-06 Rhode Island Invitational Patti Dunne's School Of Gymnastics GF1 7 junior 9.100 5T 9.125 2 9.550 1 9.200 3 36.975 1
2019-03-23 2019 Connecticut Level 6 State Championship Patti Dunne's School Of Gymnastics 1 6 Jr C 8.900 6T 8.750 5T 9.000 5T 9.125 6T 35.775 6
2019-03-01 Starlight Invitational Patti Dunne's School Of Gymnastics 02 6 SR 9.250 5 9.525 2 9.450 1 9.200 1 37.425 1
2019-02-15 Presidential Classic Patti Dunne's School Of Gymnastics W9 6 L6 W9 g4 9.375 2 9.125 4T 9.125 9 9.000 10 36.625 4
2019-02-08 Team Challenge 2019 Patti Dunne's School Of Gymnastics B2 6 Sr A 9.125 3 9.500 2 9.425 4 9.550 2 37.600 2
2019-01-18 DGS Northeast Invite Patti Dunne's School Of Gymnastics 2B 6 Sr A 8.900 2 8.900 4 9.575 1 9.250 4T 36.625 2
2019-01-10 Little Boston Invitational Patti Dunne's School Of Gymnastics B03 6 JR 8.900 7 9.475 4 9.425 1 9.175 2 36.975 1
2018-12-08 American Gymnastics Invitational Patti Dunne's School Of Gymnastics 2 6 Jr B 9.100 3 9.425 2 9.050 3 9.200 2T 36.775 1
2018-03-24 2018 CT Level 3 State Cup & Level 6 State Championships Patti Dunne's School Of Gymnastics 1 6 Jr A 9.075 7 8.500 3T 9.450 2 9.150 3 36.175 2
2018-02-16 Chelsea Piers Winter Challenge Patti Dunne's School Of Gymnastics C-2 6 JR B 8.600 12 8.850 4T 9.150 7 8.525 10 35.125 8
2018-02-09 Team Challenge 2018 Patti Dunne's School Of Gymnastics 10B 6 Jr B 9.125 11T 9.050 4 9.200 5T 9.400 2 36.775 4
2018-02-03 Level 4 & 5 States Patti Dunne's School Of Gymnastics 5 5 11 A 8.900 35T 8.900 6T 9.050 12T 9.050 19T 35.900 9
2018-01-26 2018 American Invitational Patti Dunne's School Of Gymnastics 7B 5 Younger 9.225 2 9.275 2 9.175 1 9.500 1T 37.175 1
2018-01-19 Kinetic Kids Invitational Patti Dunne's School Of Gymnastics 7 5 Younger 9.275 2 9.550 1 9.600 1 8.700 4 37.125 1
2018-01-12 DGS Invitational Patti Dunne's School Of Gymnastics 6A 5 11 yrs. 9.325 2 9.225 2 9.025 3 9.050 2 36.625 1
2017-11-30 Rhode Island Invitational Patti Dunne's School Of Gymnastics SU1 5 Intermedia 8.725 4 8.750 3 9.050 1 9.225 1 35.750 2
Get your scores on
a t-shirt, pin, or hoodie

www.lazysuits.com